Time;durP1;ratioP1;P1;durP2;ratioP2;P2;SDS_P1;SDS_P2;PMS_P1;PMS_P2;Temp;Humidity;BMP_temperature;BMP_pressure;BME280_temperature;BME280_humidity;BME280_pressure;Samples;Min_cycle;Max_cycle;Signal;HPM_P1;HPM_P2
2022/10/04 00:01:59;;;;;;;5.25;2.40;;;;;;;;;;5021228;28;20037;-86
2022/10/04 00:04:33;;;;;;;5.32;2.35;;;;;;;;;;5019759;28;20066;-87
2022/10/04 00:07:10;;;;;;;4.43;2.50;;;;;;;;;;5037330;28;20517;-85
2022/10/04 00:09:44;;;;;;;4.63;2.47;;;;;;;;;;5037062;28;20100;-85
2022/10/04 00:12:45;;;;;;;6.18;2.70;;;;;;;;;;5036644;28;20500;-88
2022/10/04 00:15:18;;;;;;;5.40;2.70;;;;;;;;;;5025833;28;20518;-88
2022/10/04 00:17:44;;;;;;;;;;;;;;;;;;5036564;28;20033;-86
2022/10/04 00:20:55;;;;;;;8.25;2.30;;;;;;;;;;5017831;28;19913;-86
2022/10/04 00:23:23;;;;;;;4.78;2.50;;;;;;;;;;5039917;28;20029;-87
2022/10/04 00:25:55;;;;;;;5.35;2.58;;;;;;;;;;5054798;28;20128;-87
2022/10/04 00:28:23;;;;;;;4.18;2.35;;;;;;;;;;5048461;28;20064;-87
2022/10/04 00:31:19;;;;;;;4.60;2.58;;;;;;;;;;5040348;28;20238;-86
2022/10/04 00:34:07;;;;;;;4.40;2.40;;;;;;;;;;5057177;28;20045;-87
2022/10/04 00:36:44;;;;;;;3.55;2.35;;;;;;;;;;5040542;28;20043;-86
2022/10/04 00:39:10;;;;;;;3.58;2.30;;;;;;;;;;5057773;28;20489;-86
2022/10/04 00:41:48;;;;;;;2.92;2.25;;;;;;;;;;5057547;28;20033;-85
2022/10/04 00:44:35;;;;;;;3.10;2.30;;;;;;;;;;5023047;28;20069;-86
2022/10/04 00:47:11;;;;;;;7.97;2.53;;;;;;;;;;5057514;28;20466;-86
2022/10/04 00:49:41;;;;;;;4.13;2.38;;;;;;;;;;5039943;28;20483;-86
2022/10/04 00:52:14;;;;;;;3.47;2.20;;;;;;;;;;5057268;28;20033;-86
2022/10/04 00:54:49;;;;;;;6.03;2.25;;;;;;;;;;5057160;28;20036;-87
2022/10/04 00:57:50;;;;;;;5.07;2.60;;;;;;;;;;5039167;28;20028;-86
2022/10/04 01:00:18;;;;;;;4.68;2.30;;;;;;;;;;5017768;28;20464;-85
2022/10/04 01:03:12;;;;;;;3.88;2.25;;;;;;;;;;5038779;28;20037;-85
2022/10/04 01:05:41;;;;;;;5.82;2.40;;;;;;;;;;5037704;28;20055;-87
2022/10/04 01:08:13;;;;;;;4.07;2.10;;;;;;;;;;5038567;28;20036;-88
2022/10/04 01:10:51;;;;;;;3.13;2.03;;;;;;;;;;5055911;28;20044;-85
2022/10/04 01:13:41;;;;;;;3.17;2.42;;;;;;;;;;5038157;28;20048;-85
2022/10/04 01:16:21;;;;;;;8.82;2.47;;;;;;;;;;5036772;28;20426;-86
2022/10/04 01:18:47;;;;;;;5.97;2.40;;;;;;;;;;5055158;28;20033;-87
2022/10/04 01:21:15;;;;;;;2.85;2.20;;;;;;;;;;5054413;28;20033;-88
2022/10/04 01:23:56;;;;;;;4.85;2.35;;;;;;;;;;5036478;28;20094;-87
2022/10/04 01:26:31;;;;;;;5.65;2.25;;;;;;;;;;5053840;28;20033;-87
2022/10/04 01:29:09;;;;;;;4.85;2.10;;;;;;;;;;5065432;28;20041;-87
2022/10/04 01:31:37;;;;;;;4.15;2.40;;;;;;;;;;5038909;28;20037;-86
2022/10/04 01:34:04;;;;;;;3.92;2.40;;;;;;;;;;5055581;28;20128;-84
2022/10/04 01:36:31;;;;;;;3.22;2.17;;;;;;;;;;5021611;28;20741;-88
2022/10/04 01:38:56;;;;;;;4.22;2.40;;;;;;;;;;5037974;28;20029;-87
2022/10/04 01:41:35;;;;;;;4.63;2.30;;;;;;;;;;5056025;28;20043;-87
2022/10/04 01:44:04;;;;;;;4.43;2.38;;;;;;;;;;5056178;28;20524;-87
2022/10/04 01:46:35;;;;;;;6.55;2.50;;;;;;;;;;5055908;28;20092;-86
2022/10/04 01:49:05;;;;;;;4.93;2.58;;;;;;;;;;5056486;28;20037;-85
2022/10/04 01:51:35;;;;;;;3.47;2.22;;;;;;;;;;5056318;28;20040;-85
2022/10/04 01:54:00;;;;;;;4.22;2.40;;;;;;;;;;5037973;28;20558;-87
2022/10/04 01:56:39;;;;;;;3.63;2.10;;;;;;;;;;5055924;28;20040;-85
2022/10/04 01:59:11;;;;;;;6.32;2.47;;;;;;;;;;5021236;28;20546;-85
2022/10/04 02:01:51;;;;;;;4.43;2.47;;;;;;;;;;5017801;22;20042;-84
2022/10/04 02:04:20;;;;;;;5.80;2.60;;;;;;;;;;4994992;28;20716;-81
2022/10/04 02:06:51;;;;;;;5.75;2.50;;;;;;;;;;4994628;28;20046;-83
2022/10/04 02:09:38;;;;;;;9.95;2.53;;;;;;;;;;4995488;28;20514;-83
2022/10/04 02:12:05;;;;;;;5.03;2.40;;;;;;;;;;4974255;28;20042;-84
2022/10/04 02:14:35;;;;;;;4.63;2.38;;;;;;;;;;4976015;28;20035;-83
2022/10/04 02:17:04;;;;;;;4.65;2.30;;;;;;;;;;4976047;28;20054;-83
2022/10/04 02:19:37;;;;;;;4.75;2.38;;;;;;;;;;4976145;28;20546;-83
2022/10/04 02:22:04;;;;;;;3.83;2.58;;;;;;;;;;4975780;28;20034;-82
2022/10/04 02:24:36;;;;;;;5.45;2.10;;;;;;;;;;4975419;28;20114;-83
2022/10/04 02:27:02;;;;;;;4.60;2.30;;;;;;;;;;4975915;28;20105;-83
2022/10/04 02:29:27;;;;;;;3.22;2.33;;;;;;;;;;4975998;28;20516;-83
2022/10/04 02:34:39;;;;;;;3.35;2.20;;;;;;;;;;4975440;28;20109;-84
2022/10/04 02:37:06;;;;;;;4.10;2.55;;;;;;;;;;4974510;28;20109;-83
2022/10/04 02:40:03;;;;;;;4.78;2.50;;;;;;;;;;4975349;28;20030;-84
2022/10/04 02:42:48;;;;;;;4.82;2.63;;;;;;;;;;4974864;28;20619;-83
2022/10/04 02:45:30;;;;;;;5.40;2.72;;;;;;;;;;4975350;28;20058;-83
2022/10/04 02:48:01;;;;;;;5.22;2.65;;;;;;;;;;4975177;28;20035;-83
2022/10/04 02:50:26;;;;;;;3.78;2.90;;;;;;;;;;4974206;28;20488;-83
2022/10/04 02:53:01;;;;;;;4.72;2.80;;;;;;;;;;4975782;28;20047;-83
2022/10/04 02:55:30;;;;;;;4.85;2.83;;;;;;;;;;4973984;28;20053;-83
2022/10/04 02:57:57;;;;;;;4.45;3.08;;;;;;;;;;4974493;28;20093;-84
2022/10/04 03:00:28;;;;;;;5.43;2.88;;;;;;;;;;4973745;28;20451;-83
2022/10/04 03:03:24;;;;;;;6.05;2.95;;;;;;;;;;4975383;28;20087;-83
2022/10/04 03:06:12;;;;;;;6.05;2.95;;;;;;;;;;4975308;28;20042;-83
2022/10/04 03:08:54;;;;;;;4.60;2.90;;;;;;;;;;4975783;28;20035;-83
2022/10/04 03:11:22;;;;;;;5.20;3.05;;;;;;;;;;4974911;28;20121;-83
2022/10/04 03:13:53;;;;;;;4.25;2.80;;;;;;;;;;4975439;28;20510;-83
2022/10/04 03:16:19;;;;;;;6.13;3.38;;;;;;;;;;4975066;28;20098;-83
2022/10/04 03:18:47;;;;;;;4.85;3.10;;;;;;;;;;4975573;28;20030;-83
2022/10/04 03:21:16;;;;;;;4.38;3.30;;;;;;;;;;4974162;28;20035;-83
2022/10/04 03:23:42;;;;;;;6.18;3.13;;;;;;;;;;4975152;28;20035;-83
2022/10/04 03:26:27;;;;;;;5.47;2.70;;;;;;;;;;4973976;28;20034;-83
2022/10/04 03:28:52;;;;;;;4.78;2.90;;;;;;;;;;4975480;28;20062;-83
2022/10/04 03:31:18;;;;;;;5.07;3.20;;;;;;;;;;4973186;28;20432;-83
2022/10/04 03:33:45;;;;;;;7.47;2.97;;;;;;;;;;4975001;28;20062;-83
2022/10/04 03:36:17;;;;;;;10.57;3.47;;;;;;;;;;4973491;28;20551;-83
2022/10/04 03:38:44;;;;;;;5.25;3.13;;;;;;;;;;4973533;28;20092;-83
2022/10/04 03:41:12;;;;;;;4.07;2.67;;;;;;;;;;4975301;28;20042;-83
2022/10/04 03:43:43;;;;;;;7.80;2.80;;;;;;;;;;4973604;28;20126;-83
2022/10/04 03:46:10;;;;;;;6.43;2.47;;;;;;;;;;4974809;28;20455;-83
2022/10/04 03:48:49;;;;;;;4.18;2.40;;;;;;;;;;4973579;28;20082;-83
2022/10/04 03:51:23;;;;;;;7.82;2.72;;;;;;;;;;4975093;28;20138;-83
2022/10/04 03:53:55;;;;;;;6.05;2.58;;;;;;;;;;4974740;28;20042;-83
2022/10/04 03:56:35;;;;;;;5.63;2.63;;;;;;;;;;4974589;28;20414;-83
2022/10/04 03:59:03;;;;;;;5.15;2.40;;;;;;;;;;4977838;28;20042;-83
2022/10/04 04:01:28;;;;;;;5.75;2.55;;;;;;;;;;4978694;28;20563;-83
2022/10/04 04:04:11;;;;;;;4.00;2.30;;;;;;;;;;4977874;28;20042;-83
2022/10/04 04:06:46;;;;;;;5.13;2.60;;;;;;;;;;4977972;28;20113;-83
2022/10/04 04:09:26;;;;;;;6.80;3.60;;;;;;;;;;4978196;28;20054;-83
2022/10/04 04:11:55;;;;;;;6.03;3.00;;;;;;;;;;4977812;28;20178;-83
2022/10/04 04:14:25;;;;;;;5.20;2.90;;;;;;;;;;4978214;28;20050;-83
2022/10/04 04:16:53;;;;;;;3.30;2.55;;;;;;;;;;4978371;28;20037;-83
2022/10/04 04:19:22;;;;;;;3.58;2.60;;;;;;;;;;4977016;28;20045;-83
2022/10/04 04:21:49;;;;;;;5.05;2.67;;;;;;;;;;4977865;28;20038;-83
2022/10/04 04:24:24;;;;;;;6.03;3.20;;;;;;;;;;4977615;28;20049;-84
2022/10/04 04:26:55;;;;;;;7.95;3.20;;;;;;;;;;4976860;28;20081;-84
2022/10/04 04:29:22;;;;;;;5.93;3.47;;;;;;;;;;4976610;28;20101;-83
2022/10/04 04:32:14;;;;;;;3.00;2.05;;;;;;;;;;4977975;28;20066;-83
2022/10/04 04:35:19;;;;;;;5.38;2.40;;;;;;;;;;4976697;28;20039;-83
2022/10/04 04:38:01;;;;;;;4.07;2.50;;;;;;;;;;4977955;28;20536;-82
2022/10/04 04:40:27;;;;;;;5.53;2.58;;;;;;;;;;4976594;28;20035;-83
2022/10/04 04:42:57;;;;;;;4.60;2.50;;;;;;;;;;4976647;28;20574;-83
2022/10/04 04:45:28;;;;;;;3.05;2.08;;;;;;;;;;4976424;28;20498;-83
2022/10/04 04:47:56;;;;;;;5.10;3.00;;;;;;;;;;4977481;28;20483;-83
2022/10/04 04:50:28;;;;;;;5.38;3.63;;;;;;;;;;4977744;28;20084;-83
2022/10/04 04:52:59;;;;;;;6.70;3.80;;;;;;;;;;4977482;28;20046;-83
2022/10/04 04:55:27;;;;;;;5.50;3.22;;;;;;;;;;4977259;28;20495;-84
2022/10/04 04:57:57;;;;;;;5.28;3.33;;;;;;;;;;4977607;28;20043;-83
2022/10/04 05:00:30;;;;;;;7.68;3.67;;;;;;;;;;4977453;28;20094;-84
2022/10/04 05:03:01;;;;;;;7.50;3.80;;;;;;;;;;4977747;28;20035;-83
2022/10/04 05:05:34;;;;;;;5.93;3.90;;;;;;;;;;4975426;28;20043;-83
2022/10/04 05:08:12;;;;;;;6.80;3.28;;;;;;;;;;4975976;28;20479;-83
2022/10/04 05:10:41;;;;;;;5.00;3.50;;;;;;;;;;4976085;28;20034;-84
2022/10/04 05:13:09;;;;;;;8.05;3.10;;;;;;;;;;4977199;28;20042;-83
2022/10/04 05:15:37;;;;;;;6.38;3.15;;;;;;;;;;4975759;28;20122;-83
2022/10/04 05:18:18;;;;;;;5.15;2.60;;;;;;;;;;4976070;28;20039;-83
2022/10/04 05:20:48;;;;;;;4.78;3.30;;;;;;;;;;4977149;28;20038;-84
2022/10/04 05:23:14;;;;;;;7.88;3.25;;;;;;;;;;4975510;28;20035;-84
2022/10/04 05:25:39;;;;;;;5.90;2.70;;;;;;;;;;4977138;28;20027;-84
2022/10/04 05:28:09;;;;;;;4.32;2.40;;;;;;;;;;4976838;28;20111;-84
2022/10/04 05:31:13;;;;;;;4.15;2.45;;;;;;;;;;4977008;28;20117;-84
2022/10/04 05:33:48;;;;;;;4.13;2.10;;;;;;;;;;4971322;28;20046;-83
2022/10/04 05:36:57;;;;;;;5.28;2.70;;;;;;;;;;4975261;28;20097;-84
2022/10/04 05:39:37;;;;;;;3.20;2.45;;;;;;;;;;4971320;28;20058;-83
2022/10/04 05:42:12;;;;;;;4.43;2.42;;;;;;;;;;4975468;28;20043;-83
2022/10/04 05:44:52;;;;;;;5.30;2.72;;;;;;;;;;4975851;28;20035;-83
2022/10/04 05:47:22;;;;;;;5.15;2.50;;;;;;;;;;4975594;28;20033;-83
2022/10/04 05:49:51;;;;;;;3.75;2.78;;;;;;;;;;4976994;28;20034;-83
2022/10/04 05:52:29;;;;;;;6.90;3.10;;;;;;;;;;4975260;28;20084;-84
2022/10/04 05:55:42;;;;;;;5.57;3.45;;;;;;;;;;4976298;28;20034;-84
2022/10/04 05:58:30;;;;;;;5.00;3.63;;;;;;;;;;4949950;28;20043;-84
2022/10/04 06:01:25;;;;;;;8.10;3.60;;;;;;;;;;4975330;28;20054;-84
2022/10/04 06:04:13;;;;;;;5.75;3.30;;;;;;;;;;4975230;28;20031;-84
2022/10/04 06:06:49;;;;;;;7.05;3.45;;;;;;;;;;4976432;28;20066;-84
2022/10/04 06:09:26;;;;;;;8.85;3.78;;;;;;;;;;4976338;28;20061;-84
2022/10/04 06:12:09;;;;;;;7.10;3.50;;;;;;;;;;4990533;28;20104;-84
2022/10/04 06:14:42;;;;;;;5.38;2.83;;;;;;;;;;4995948;28;20490;-84
2022/10/04 06:17:26;;;;;;;4.55;2.72;;;;;;;;;;4995490;28;20042;-83
2022/10/04 06:20:24;;;;;;;3.53;2.60;;;;;;;;;;4995249;28;20046;-83
2022/10/04 06:22:58;;;;;;;5.90;2.60;;;;;;;;;;4995095;28;20034;-83
2022/10/04 06:25:27;;;;;;;8.32;3.00;;;;;;;;;;4995178;28;20030;-84
2022/10/04 06:28:14;;;;;;;6.97;3.35;;;;;;;;;;4995181;28;20111;-83
2022/10/04 06:30:58;;;;;;;4.55;3.25;;;;;;;;;;4995428;28;20108;-84
2022/10/04 06:33:46;;;;;;;5.07;3.13;;;;;;;;;;4994339;28;20100;-84
2022/10/04 06:36:17;;;;;;;4.53;2.90;;;;;;;;;;4977708;28;20125;-83
2022/10/04 06:39:10;;;;;;;7.30;2.90;;;;;;;;;;4994909;28;20546;-84
2022/10/04 06:41:54;;;;;;;4.90;2.60;;;;;;;;;;4995243;28;20081;-84
2022/10/04 06:44:42;;;;;;;5.47;2.95;;;;;;;;;;4977115;28;20030;-83
2022/10/04 06:47:59;;;;;;;4.78;2.92;;;;;;;;;;4995035;28;20040;-84
2022/10/04 06:50:54;;;;;;;5.35;2.88;;;;;;;;;;4969813;28;20050;-83
2022/10/04 06:53:53;;;;;;;5.15;3.00;;;;;;;;;;4977255;28;20034;-84
2022/10/04 06:56:54;;;;;;;4.35;2.75;;;;;;;;;;4994469;28;20039;-83
2022/10/04 07:00:05;;;;;;;5.18;3.00;;;;;;;;;;4996176;28;20042;-84
2022/10/04 07:02:39;;;;;;;3.75;2.58;;;;;;;;;;4966582;28;20058;-84
2022/10/04 07:05:16;;;;;;;7.07;2.67;;;;;;;;;;4992904;28;20101;-84
2022/10/04 07:07:47;;;;;;;4.90;2.70;;;;;;;;;;4993158;28;20049;-84
2022/10/04 07:10:34;;;;;;;5.82;2.67;;;;;;;;;;4994208;28;20046;-84
2022/10/04 07:13:02;;;;;;;5.65;3.00;;;;;;;;;;4992767;28;20046;-84
2022/10/04 07:15:32;;;;;;;4.57;3.17;;;;;;;;;;4994573;28;20094;-84
2022/10/04 07:18:05;;;;;;;4.45;3.00;;;;;;;;;;4994241;28;20411;-84
2022/10/04 07:20:33;;;;;;;4.13;2.70;;;;;;;;;;4994834;28;20094;-83
2022/10/04 07:23:07;;;;;;;4.82;2.70;;;;;;;;;;4994439;28;20034;-84
2022/10/04 07:25:44;;;;;;;5.60;2.65;;;;;;;;;;4994933;28;20495;-85
2022/10/04 07:31:26;;;;;;;5.72;2.42;;;;;;;;;;4994520;28;20122;-83
2022/10/04 07:34:10;;;;;;;5.10;2.30;;;;;;;;;;4995765;28;20052;-84
2022/10/04 07:36:57;;;;;;;6.30;2.60;;;;;;;;;;4998705;28;20048;-84
2022/10/04 07:39:28;;;;;;;6.40;2.80;;;;;;;;;;4998641;28;20041;-86
2022/10/04 07:41:57;;;;;;;4.82;2.60;;;;;;;;;;4998650;28;20139;-84
2022/10/04 07:44:36;;;;;;;5.15;2.40;;;;;;;;;;4981304;28;20081;-84
2022/10/04 07:47:02;;;;;;;8.95;3.38;;;;;;;;;;4981387;28;20475;-83
2022/10/04 07:49:27;;;;;;;7.15;2.83;;;;;;;;;;4981347;28;20034;-84
2022/10/04 07:52:14;;;;;;;8.63;2.58;;;;;;;;;;4998160;28;20053;-83
2022/10/04 07:54:51;;;;;;;4.25;2.40;;;;;;;;;;4980579;28;20034;-83
2022/10/04 07:57:23;;;;;;;4.13;2.20;;;;;;;;;;4996814;28;20034;-84
2022/10/04 08:00:00;;;;;;;4.22;2.35;;;;;;;;;;4996750;28;20036;-84
2022/10/04 08:03:11;;;;;;;5.63;2.45;;;;;;;;;;4980297;28;20038;-84
2022/10/04 08:05:44;;;;;;;3.63;2.25;;;;;;;;;;4982946;28;20093;-84
2022/10/04 08:08:34;;;;;;;4.88;2.30;;;;;;;;;;4997043;28;20113;-84
2022/10/04 08:11:06;;;;;;;5.20;2.30;;;;;;;;;;4996227;28;20084;-84
2022/10/04 08:13:49;;;;;;;4.20;2.10;;;;;;;;;;4996473;28;20038;-84
2022/10/04 08:16:22;;;;;;;2.83;2.00;;;;;;;;;;4997467;28;20065;-84
2022/10/04 08:19:09;;;;;;;5.50;2.20;;;;;;;;;;4997404;28;20095;-84
2022/10/04 08:21:53;;;;;;;6.43;2.17;;;;;;;;;;4997321;28;20109;-84
2022/10/04 08:25:01;;;;;;;3.78;2.25;;;;;;;;;;4997122;28;20034;-84
2022/10/04 08:29:41;;;;;;;5.05;2.25;;;;;;;;;;4985901;28;20046;-84
2022/10/04 08:30:40;;;;;;;5.20;2.30;;;;;;;;;;4997006;28;20062;-85
2022/10/04 08:33:09;;;;;;;4.22;2.10;;;;;;;;;;4996348;28;20034;-84
2022/10/04 08:35:38;;;;;;;3.97;2.00;;;;;;;;;;4996997;28;20058;-86
2022/10/04 08:38:25;;;;;;;4.05;2.20;;;;;;;;;;4997828;28;20554;-84
2022/10/04 08:41:00;;;;;;;4.75;2.13;;;;;;;;;;4997498;28;20411;-85
2022/10/04 08:44:09;;;;;;;5.47;2.22;;;;;;;;;;4997045;28;20077;-84
2022/10/04 08:46:53;;;;;;;5.85;2.50;;;;;;;;;;4996744;28;20506;-84
2022/10/04 08:49:54;;;;;;;4.30;2.83;;;;;;;;;;4998205;28;20065;-85
2022/10/04 08:52:35;;;;;;;5.00;2.30;;;;;;;;;;4997522;28;20313;-85
2022/10/04 08:55:22;;;;;;;6.20;2.45;;;;;;;;;;4997383;28;20411;-85
2022/10/04 09:01:12;;;;;;;4.97;2.30;;;;;;;;;;4955253;28;20053;-86
2022/10/04 09:03:41;;;;;;;4.90;2.35;;;;;;;;;;4950537;29;20046;-86
2022/10/04 09:06:22;;;;;;;5.40;2.13;;;;;;;;;;4972007;28;20046;-87
2022/10/04 09:09:24;;;;;;;4.25;2.00;;;;;;;;;;4971570;28;20077;-85
2022/10/04 09:12:12;;;;;;;3.70;2.00;;;;;;;;;;4956107;28;20511;-86
2022/10/04 09:15:15;;;;;;;6.05;2.30;;;;;;;;;;4955978;29;20031;-86
2022/10/04 09:17:48;;;;;;;5.57;2.35;;;;;;;;;;4939992;29;20054;-85
2022/10/04 09:20:40;;;;;;;7.53;2.37;;;;;;;;;;4956921;28;20093;-85
2022/10/04 09:23:30;;;;;;;5.47;2.25;;;;;;;;;;4971898;28;20282;-85
2022/10/04 09:26:05;;;;;;;4.57;2.20;;;;;;;;;;4955403;29;20046;-85
2022/10/04 09:28:48;;;;;;;4.43;2.17;;;;;;;;;;4955511;28;20043;-85
2022/10/04 09:31:28;;;;;;;4.85;1.95;;;;;;;;;;4957151;28;20031;-85
2022/10/04 09:34:05;;;;;;;4.50;1.88;;;;;;;;;;4957036;28;20035;-84
2022/10/04 09:37:10;;;;;;;5.43;2.20;;;;;;;;;;4955310;29;20038;-86
2022/10/04 09:40:00;;;;;;;4.13;2.10;;;;;;;;;;4945147;28;20047;-85
2022/10/04 09:42:32;;;;;;;4.15;1.85;;;;;;;;;;4955367;29;20043;-87
2022/10/04 09:45:19;;;;;;;4.18;1.92;;;;;;;;;;4955286;29;20226;-87
2022/10/04 09:47:52;;;;;;;4.70;2.00;;;;;;;;;;4956153;29;20550;-87
2022/10/04 09:50:38;;;;;;;4.82;1.90;;;;;;;;;;4955421;29;20035;-87
2022/10/04 09:53:22;;;;;;;3.30;1.80;;;;;;;;;;4955285;29;20078;-87
2022/10/04 09:55:57;;;;;;;3.55;1.83;;;;;;;;;;4971023;28;20062;-86
2022/10/04 09:59:15;;;;;;;5.40;2.00;;;;;;;;;;4955267;28;20039;-87
2022/10/04 10:02:06;;;;;;;3.45;1.80;;;;;;;;;;4939425;28;20047;-88
2022/10/04 10:04:50;;;;;;;2.42;1.73;;;;;;;;;;4953877;29;20050;-87
2022/10/04 10:07:22;;;;;;;5.28;2.10;;;;;;;;;;4970714;28;20046;-85
2022/10/04 10:15:57;;;;;;;3.53;1.83;;;;;;;;;;4955993;28;20050;-88
2022/10/04 10:18:31;;;;;;;4.70;1.90;;;;;;;;;;4938360;29;20054;-85
2022/10/04 10:21:05;;;;;;;5.43;2.30;;;;;;;;;;4957573;28;20031;-86
2022/10/04 10:23:42;;;;;;;4.30;2.00;;;;;;;;;;4955756;28;20110;-87
2022/10/04 10:26:30;;;;;;;3.85;1.92;;;;;;;;;;4954150;29;20035;-88
2022/10/04 10:29:02;;;;;;;3.65;1.83;;;;;;;;;;4955467;28;20046;-87
2022/10/04 10:31:50;;;;;;;4.97;2.00;;;;;;;;;;4970850;28;20031;-85
2022/10/04 10:34:58;;;;;;;3.92;2.00;;;;;;;;;;4954967;29;20126;-84
2022/10/04 10:37:55;;;;;;;5.28;2.15;;;;;;;;;;4971658;28;20043;-86
2022/10/04 10:40:58;;;;;;;4.65;2.30;;;;;;;;;;4956837;29;20035;-86
2022/10/04 10:43:36;;;;;;;7.78;2.60;;;;;;;;;;4972791;28;20031;-84
2022/10/04 10:46:05;;;;;;;2.65;2.10;;;;;;;;;;4954805;29;20042;-84
2022/10/04 10:48:36;;;;;;;5.47;2.20;;;;;;;;;;4956344;28;20643;-84
2022/10/04 10:51:09;;;;;;;4.93;2.50;;;;;;;;;;4970691;28;20114;-85
2022/10/04 10:54:19;;;;;;;4.35;2.35;;;;;;;;;;4954598;29;20042;-87
2022/10/04 10:56:44;;;;;;;4.07;2.25;;;;;;;;;;4956833;29;20023;-84
2022/10/04 10:59:48;;;;;;;5.70;2.40;;;;;;;;;;4938479;29;20385;-86
2022/10/04 11:02:23;;;;;;;4.80;2.28;;;;;;;;;;4952168;29;20082;-87
2022/10/04 11:05:12;;;;;;;5.65;2.63;;;;;;;;;;4938924;29;20058;-87
2022/10/04 11:07:51;;;;;;;11.23;2.60;;;;;;;;;;4950734;28;20686;-84
2022/10/04 11:10:54;;;;;;;4.93;2.35;;;;;;;;;;4954572;29;20477;-85
2022/10/04 11:13:29;;;;;;;7.70;2.65;;;;;;;;;;4954324;29;20046;-86
2022/10/04 11:15:54;;;;;;;7.25;2.30;;;;;;;;;;4937506;29;20470;-87
2022/10/04 11:18:44;;;;;;;6.28;2.80;;;;;;;;;;4953291;28;20066;-85
2022/10/04 11:21:40;;;;;;;5.85;2.72;;;;;;;;;;4970029;28;20043;-86
2022/10/04 11:24:33;;;;;;;12.43;2.70;;;;;;;;;;4954965;29;20039;-85
2022/10/04 11:27:11;;;;;;;7.53;2.70;;;;;;;;;;4970658;28;20467;-86
2022/10/04 11:30:02;;;;;;;6.55;2.78;;;;;;;;;;4954487;28;20572;-86
2022/10/04 11:32:46;;;;;;;8.52;3.00;;;;;;;;;;4969768;28;20035;-85
2022/10/04 11:35:39;;;;;;;5.70;2.58;;;;;;;;;;4968974;28;20043;-85
2022/10/04 11:38:27;;;;;;;4.40;2.50;;;;;;;;;;4952909;28;20027;-86
2022/10/04 11:41:06;;;;;;;7.47;2.83;;;;;;;;;;4969784;28;20122;-85
2022/10/04 11:43:39;;;;;;;4.22;2.47;;;;;;;;;;4953093;29;20043;-86
2022/10/04 11:46:42;;;;;;;4.88;2.38;;;;;;;;;;4937166;29;20492;-85
2022/10/04 11:49:07;;;;;;;7.40;2.67;;;;;;;;;;4969091;28;20114;-87
2022/10/04 11:51:51;;;;;;;5.38;2.33;;;;;;;;;;4953543;28;20027;-84
2022/10/04 11:54:38;;;;;;;7.07;2.40;;;;;;;;;;4954358;28;20492;-84
2022/10/04 11:57:31;;;;;;;4.53;2.38;;;;;;;;;;4953443;29;20035;-86
2022/10/04 12:00:06;;;;;;;7.50;2.70;;;;;;;;;;4952991;28;20042;-85
2022/10/04 12:02:53;;;;;;;7.38;2.50;;;;;;;;;;4956375;28;20508;-86
2022/10/04 12:05:51;;;;;;;4.68;2.50;;;;;;;;;;4954646;28;20031;-86
2022/10/04 12:08:47;;;;;;;5.95;2.30;;;;;;;;;;4953422;28;20039;-86
2022/10/04 12:11:23;;;;;;;4.95;2.30;;;;;;;;;;4954220;28;20039;-84
2022/10/04 12:14:00;;;;;;;4.47;2.13;;;;;;;;;;4954083;28;20484;-86
2022/10/04 12:16:32;;;;;;;5.63;2.45;;;;;;;;;;4969544;28;20031;-86
2022/10/04 12:19:36;;;;;;;4.72;2.20;;;;;;;;;;4970956;28;20043;-85
2022/10/04 12:22:07;;;;;;;5.70;2.30;;;;;;;;;;4973271;28;20073;-86
2022/10/04 12:25:03;;;;;;;6.25;2.30;;;;;;;;;;4973061;28;20468;-87
2022/10/04 12:28:19;;;;;;;5.40;2.30;;;;;;;;;;4958510;28;20058;-86
2022/10/04 12:30:45;;;;;;;5.38;2.20;;;;;;;;;;4917436;29;20036;-86
2022/10/04 12:33:16;;;;;;;3.45;2.20;;;;;;;;;;4917956;29;20179;-86
2022/10/04 12:35:54;;;;;;;6.03;2.35;;;;;;;;;;4937146;28;20047;-86
2022/10/04 12:38:38;;;;;;;5.53;2.20;;;;;;;;;;4941604;29;20041;-86
2022/10/04 12:41:13;;;;;;;5.93;2.28;;;;;;;;;;4956780;29;20035;-86
2022/10/04 12:44:06;;;;;;;4.10;2.10;;;;;;;;;;4973606;28;20039;-85
2022/10/04 12:46:38;;;;;;;6.70;2.30;;;;;;;;;;4958772;29;20035;-87
2022/10/04 12:49:12;;;;;;;6.57;2.15;;;;;;;;;;4958840;28;20035;-87
2022/10/04 12:52:07;;;;;;;5.88;2.03;;;;;;;;;;4957855;29;20047;-87
2022/10/04 12:54:41;;;;;;;4.68;2.10;;;;;;;;;;4942348;29;20503;-88
2022/10/04 12:57:12;;;;;;;3.92;1.98;;;;;;;;;;4959136;28;20027;-87
2022/10/04 13:00:05;;;;;;;5.70;2.20;;;;;;;;;;4974206;28;20039;-85
2022/10/04 13:03:12;;;;;;;4.68;2.30;;;;;;;;;;4974962;28;20082;-86
2022/10/04 13:06:01;;;;;;;6.13;2.10;;;;;;;;;;4956532;29;20059;-87
2022/10/04 13:08:42;;;;;;;6.10;2.22;;;;;;;;;;4972576;28;20035;-87
2022/10/04 13:11:27;;;;;;;6.60;2.47;;;;;;;;;;4972502;28;20027;-87
2022/10/04 13:14:01;;;;;;;5.07;2.05;;;;;;;;;;4957094;29;20174;-86
2022/10/04 13:16:42;;;;;;;3.70;2.38;;;;;;;;;;4972290;28;20111;-88
2022/10/04 13:19:57;;;;;;;4.28;1.92;;;;;;;;;;4956858;28;20070;-86
2022/10/04 13:22:35;;;;;;;4.93;1.85;;;;;;;;;;4902453;29;20133;-85
2022/10/04 13:25:11;;;;;;;4.30;2.15;;;;;;;;;;4956552;28;20510;-86
2022/10/04 13:27:45;;;;;;;5.20;2.35;;;;;;;;;;4971718;28;20119;-86
2022/10/04 13:30:25;;;;;;;7.43;2.15;;;;;;;;;;4970442;28;20039;-87
2022/10/04 13:33:09;;;;;;;5.32;2.20;;;;;;;;;;4940536;29;20488;-86
2022/10/04 13:35:37;;;;;;;;;;;;;;;;;;4957190;29;20051;-88
2022/10/04 13:38:34;;;;;;;5.75;1.92;;;;;;;;;;4973986;28;19916;-87
2022/10/04 13:41:17;;;;;;;5.30;2.03;;;;;;;;;;4958540;29;20087;-86
2022/10/04 13:44:05;;;;;;;3.90;2.15;;;;;;;;;;4957378;29;20043;-86
2022/10/04 13:46:44;;;;;;;7.13;2.20;;;;;;;;;;4971474;28;20046;-89
2022/10/04 13:49:15;;;;;;;4.53;2.00;;;;;;;;;;4957012;28;20050;-85
2022/10/04 13:58:17;;;;;;;5.38;2.15;;;;;;;;;;4971148;28;20046;-86
2022/10/04 14:01:14;;;;;;;6.43;2.40;;;;;;;;;;4956346;28;20032;-87
2022/10/04 14:04:01;;;;;;;4.50;2.00;;;;;;;;;;4956488;28;20035;-86
2022/10/04 14:07:01;;;;;;;5.50;2.50;;;;;;;;;;4956168;28;20404;-86
2022/10/04 14:09:33;;;;;;;5.97;2.20;;;;;;;;;;4970770;28;20035;-84
2022/10/04 14:12:17;;;;;;;6.32;2.10;;;;;;;;;;4970117;28;20074;-86
2022/10/04 14:14:46;;;;;;;;;;;;;;;;;;4955909;29;20043;-85
2022/10/04 14:17:42;;;;;;;5.40;2.00;;;;;;;;;;4955620;28;20387;-84
2022/10/04 14:20:38;;;;;;;5.72;2.10;;;;;;;;;;4954279;28;20404;-87
2022/10/04 14:23:25;;;;;;;4.40;2.13;;;;;;;;;;4955450;29;20038;-85
2022/10/04 14:26:02;;;;;;;6.15;2.17;;;;;;;;;;4955331;29;20067;-86
2022/10/04 14:28:53;;;;;;;5.57;2.05;;;;;;;;;;4970387;28;20067;-86
2022/10/04 14:31:34;;;;;;;5.25;2.28;;;;;;;;;;4954017;29;20198;-87
2022/10/04 14:34:55;;;;;;;4.65;2.20;;;;;;;;;;4954249;29;20477;-86
2022/10/04 14:37:55;;;;;;;5.80;2.22;;;;;;;;;;4932858;29;20039;-88
2022/10/04 14:40:54;;;;;;;5.28;2.20;;;;;;;;;;4939635;29;20039;-87
2022/10/04 14:43:46;;;;;;;5.47;2.20;;;;;;;;;;4956701;28;20098;-88
2022/10/04 14:46:17;;;;;;;5.35;2.13;;;;;;;;;;4956085;28;20231;-87
2022/10/04 14:49:18;;;;;;;4.22;2.03;;;;;;;;;;4954203;28;20170;-88
2022/10/04 14:52:07;;;;;;;8.43;2.25;;;;;;;;;;4954513;29;20085;-87
2022/10/04 14:54:34;;;;;;;3.17;1.77;;;;;;;;;;4954944;29;20078;-86
2022/10/04 14:57:19;;;;;;;4.07;2.05;;;;;;;;;;4955432;29;20035;-86
2022/10/04 15:00:05;;;;;;;6.50;2.25;;;;;;;;;;4955996;28;20031;-86
2022/10/04 15:02:31;;;;;;;6.25;2.10;;;;;;;;;;5029689;23;20045;-87
2022/10/04 15:05:30;;;;;;;6.40;2.20;;;;;;;;;;5000450;28;20132;-90
2022/10/04 15:08:25;;;;;;;3.90;2.25;;;;;;;;;;5019042;28;20034;-88
2022/10/04 15:11:04;;;;;;;4.90;2.08;;;;;;;;;;5019259;28;20550;-87
2022/10/04 15:13:39;;;;;;;4.03;1.95;;;;;;;;;;5038822;28;20040;-87
2022/10/04 15:16:27;;;;;;;4.05;2.30;;;;;;;;;;5037239;28;20037;-87
2022/10/04 15:19:03;;;;;;;4.53;2.30;;;;;;;;;;5038386;28;20627;-88
2022/10/04 15:21:37;;;;;;;4.80;2.05;;;;;;;;;;5038058;28;20524;-87
2022/10/04 15:24:15;;;;;;;5.97;2.13;;;;;;;;;;5046174;28;20040;-87
2022/10/04 15:27:07;;;;;;;5.90;2.20;;;;;;;;;;5057268;28;20045;-88
2022/10/04 15:30:06;;;;;;;4.18;2.15;;;;;;;;;;5058244;28;20036;-88
2022/10/04 15:32:53;;;;;;;4.35;1.90;;;;;;;;;;5044271;28;20088;-88
2022/10/04 15:35:40;;;;;;;5.57;2.08;;;;;;;;;;5058208;28;20497;-87
2022/10/04 15:38:28;;;;;;;5.60;2.00;;;;;;;;;;5040316;28;20037;-88
2022/10/04 15:41:12;;;;;;;4.65;2.40;;;;;;;;;;5058363;28;20047;-88
2022/10/04 15:43:43;;;;;;;4.50;1.90;;;;;;;;;;5059184;28;20043;-86
2022/10/04 15:46:25;;;;;;;5.70;2.80;;;;;;;;;;5058400;28;20082;-87
2022/10/04 15:48:50;;;;;;;6.70;2.40;;;;;;;;;;5059074;28;20096;-86
2022/10/04 15:51:16;;;;;;;4.63;1.90;;;;;;;;;;5058630;28;20065;-87
2022/10/04 15:53:59;;;;;;;4.88;1.90;;;;;;;;;;5042369;28;20057;-87
2022/10/04 15:56:52;;;;;;;3.42;1.80;;;;;;;;;;5063442;28;20037;-87
2022/10/04 15:59:20;;;;;;;5.40;1.95;;;;;;;;;;5062258;28;20049;-87
2022/10/04 16:01:46;;;;;;;4.97;2.08;;;;;;;;;;5060494;28;20036;-86
2022/10/04 16:04:24;;;;;;;3.90;1.80;;;;;;;;;;5043331;28;20033;-87
2022/10/04 16:06:57;;;;;;;5.18;2.00;;;;;;;;;;5061051;28;20033;-88
2022/10/04 16:09:38;;;;;;;4.53;1.93;;;;;;;;;;5061423;28;20032;-88
2022/10/04 16:12:39;;;;;;;4.60;1.92;;;;;;;;;;5061216;28;20473;-87
2022/10/04 16:15:19;;;;;;;3.08;1.73;;;;;;;;;;5039376;28;20080;-87
2022/10/04 16:18:04;;;;;;;2.90;1.70;;;;;;;;;;5043532;28;20045;-88
2022/10/04 16:20:35;;;;;;;2.25;2.00;;;;;;;;;;5060775;28;20033;-88
2022/10/04 16:23:25;;;;;;;3.92;2.38;;;;;;;;;;5061415;28;20032;-88